Bookmark and Share
Track history (hours):
 

Portland

More information available from US FCC via Universal Licensing System and Coast Guard Vessel Documentation Center.

Last reported at 2014-Apr-18 02:28 UTC. Time now 2014-Apr-18 03:12 UTC.
Position N 45°39' W 122°45'.

Length 27 m; draft 4 m.

Type: Towing. MMSI: 367315814.

NotesDate/timePositionNaut miles runAvg speedWind from/ knotsBaromVisibWave heightAir tempDewpointWater temp
2014-Apr-18 02:28N 45°39' W 122°45'0 0.0
2014-Apr-18 01:31N 45°39' W 122°45'0 0.0
2014-Apr-18 00:21N 45°39' W 122°45'0 0.4
2014-Apr-17 23:33N 45°39' W 122°45'1 1.3
2014-Apr-17 22:34N 45°38' W 122°44'1 1.0
2014-Apr-17 21:25N 45°39' W 122°45'0 0.0
2014-Apr-17 20:31N 45°39' W 122°45'0 0.0
2014-Apr-17 19:28N 45°39' W 122°45'0 0.0
2014-Apr-17 18:25N 45°39' W 122°45'0 0.0
2014-Apr-17 17:31N 45°39' W 122°45'0 0.0
2014-Apr-17 16:31N 45°39' W 122°45'1 1.5
2014-Apr-17 15:34N 45°40' W 122°46'0 0.5
2014-Apr-17 14:33N 45°40' W 122°46'2 1.6
2014-Apr-17 13:34N 45°39' W 122°45'1 0.9
2014-Apr-17 12:34N 45°40' W 122°46'1 1.2
2014-Apr-17 11:33N 45°39' W 122°45'0 0.0
2014-Apr-17 10:33N 45°39' W 122°45'0 0.0
2014-Apr-17 09:33N 45°39' W 122°45'0 0.0
2014-Apr-17 08:33N 45°39' W 122°45'1 1.5
2014-Apr-17 07:33N 45°38' W 122°43'1 1.5
2014-Apr-17 06:33N 45°39' W 122°45'0 0.0
2014-Apr-17 05:28N 45°39' W 122°45'0 0.0
2014-Apr-17 04:25N 45°39' W 122°45'0 0.0
2014-Apr-17 03:28N 45°39' W 122°45'0 0.0
2014-Apr-17 02:22N 45°39' W 122°45'0 0.0
2014-Apr-17 01:31N 45°39' W 122°45'0 0.0
2014-Apr-17 00:22N 45°39' W 122°45'0 0.0
2014-Apr-16 23:31N 45°39' W 122°45'0 0.0
2014-Apr-16 22:13N 45°39' W 122°45'0 0.0
2014-Apr-16 21:19N 45°39' W 122°45'0 0.0
2014-Apr-16 20:25N 45°39' W 122°45'0 0.0
2014-Apr-16 19:25N 45°39' W 122°45'0 0.0
2014-Apr-16 18:31N 45°39' W 122°45'0 0.0
2014-Apr-16 17:28N 45°39' W 122°45'0 0.0
2014-Apr-16 16:31N 45°39' W 122°45'0 0.0
2014-Apr-16 15:25N 45°39' W 122°45'0 0.0
2014-Apr-16 14:31N 45°39' W 122°45'0 0.0
2014-Apr-16 13:28N 45°39' W 122°45'0 0.0
2014-Apr-16 12:31N 45°39' W 122°45'0 0.0
2014-Apr-16 11:31N 45°39' W 122°45'0 0.0
2014-Apr-16 09:25N 45°39' W 122°45'0 0.0
2014-Apr-16 08:31N 45°39' W 122°45'0 0.0
2014-Apr-16 07:31N 45°39' W 122°45'0 0.0
2014-Apr-16 06:19N 45°39' W 122°45'0 0.0
2014-Apr-16 05:31N 45°39' W 122°45'0 0.0
2014-Apr-16 04:31N 45°39' W 122°45'0 0.0
2014-Apr-16 03:31N 45°39' W 122°45'0 0.0
2014-Apr-16 02:31N 45°39' W 122°45'0 0.0
2014-Apr-16 01:22N 45°39' W 122°45'0 0.2
2014-Apr-16 00:30N 45°39' W 122°45'0 0.2
2014-Apr-15 23:28N 45°39' W 122°45'0 0.0
2014-Apr-15 22:22N 45°39' W 122°45'0 0.0
2014-Apr-15 21:28N 45°39' W 122°45'0 0.0
2014-Apr-15 20:31N 45°39' W 122°45'0 0.0
2014-Apr-15 19:28N 45°39' W 122°45'0 0.0
2014-Apr-15 18:31N 45°39' W 122°45'0 0.0
2014-Apr-15 17:25N 45°39' W 122°45'0 0.0
2014-Apr-15 15:28N 45°39' W 122°45'2 2.3
2014-Apr-15 14:33N 45°38' W 122°42'0 0.1
2014-Apr-15 12:34N 45°38' W 122°42'2 2.0
2014-Apr-15 11:32N 45°39' W 122°45'0 0.0
2014-Apr-15 10:32N 45°39' W 122°45'0 0.0
2014-Apr-15 08:32N 45°39' W 122°45'0 0.0
2014-Apr-15 07:32N 45°39' W 122°45'0 0.0
2014-Apr-15 05:32N 45°39' W 122°45'0 0.0
2014-Apr-15 01:34N 45°39' W 122°45'0 0.0
2014-Apr-15 00:33N 45°39' W 122°45'0 0.1
2014-Apr-14 23:31N 45°39' W 122°45'1 1.3
2014-Apr-14 22:33N 45°38' W 122°47'5 5.2
2014-Apr-14 21:33N 45°34' W 122°44'0 0.0
2014-Apr-14 19:33N 45°34' W 122°44'5 4.7
2014-Apr-14 18:34N 45°38' W 122°47'1 0.6
2014-Apr-14 17:34N 45°37' W 122°47'4 1.4
2014-Apr-14 14:33N 45°34' W 122°44'1 1.4
2014-Apr-14 13:33N 45°33' W 122°42'6 0.4
2014-Apr-13 22:29N 45°39' W 122°45'0 0.0
2014-Apr-13 18:29N 45°39' W 122°45'2 0.1
2014-Apr-13 04:33N 45°38' W 122°42'0 0.1
2014-Apr-13 03:33N 45°38' W 122°42'2 1.8
2014-Apr-13 02:29N 45°39' W 122°45'0 0.0
2014-Apr-13 01:33N 45°39' W 122°45'1 0.8
2014-Apr-13 00:33N 45°38' W 122°44'0 0.4
2014-Apr-12 23:32N 45°38' W 122°43'1 1.4
2014-Apr-12 22:33N 45°39' W 122°45'1 0.1
2014-Apr-12 11:04N 45°38' W 122°43'1 1.3
2014-Apr-12 10:16N 45°38' W 122°42'1 0.9
2014-Apr-12 09:33N 45°38' W 122°43'1 0.5
2014-Apr-12 08:27N 45°38' W 122°42'2 0.4
2014-Apr-12 02:27N 45°39' W 122°45'2 1.7
2014-Apr-12 01:33N 45°38' W 122°43'0 0.3
2014-Apr-12 00:33N 45°38' W 122°43'1 1.2
2014-Apr-11 23:33N 45°39' W 122°45'1 0.5
2014-Apr-11 22:33N 45°39' W 122°44'1 1.0
2014-Apr-11 21:33N 45°38' W 122°43'2 1.5
2014-Apr-11 20:33N 45°39' W 122°45'0 0.0
2014-Apr-11 19:33N 45°39' W 122°45'1 0.0
2014-Apr-10 09:18N 45°38' W 122°43'0 0.2
2014-Apr-10 08:25N 45°38' W 122°43'2 0.3
2014-Apr-10 03:25N 45°39' W 122°45'0 0.0
2014-Apr-10 02:19N 45°39' W 122°45'0 0.0
2014-Apr-10 01:31N 45°39' W 122°45'0 0.0
2014-Apr-10 00:28N 45°39' W 122°45'0 0.0
2014-Apr-09 23:16N 45°39' W 122°45'0 0.0
2014-Apr-09 22:28N 45°39' W 122°45'0 0.0
2014-Apr-09 21:22N 45°39' W 122°45'1 0.9
2014-Apr-09 20:32N 45°39' W 122°46'1 0.8
2014-Apr-09 19:33N 45°38' W 122°47'3 2.6
2014-Apr-09 18:31N 45°36' W 122°47'2 2.3
2014-Apr-09 17:33N 45°34' W 122°44'1 0.3
2014-Apr-09 15:27N 45°34' W 122°44'0 0.0
2014-Apr-09 14:15N 45°34' W 122°44'0 0.0
2014-Apr-09 13:27N 45°34' W 122°44'0 0.0
2014-Apr-09 11:33N 45°34' W 122°44'0 0.0
2014-Apr-08 18:33N 45°34' W 122°44'0 0.0
2014-Apr-08 17:33N 45°34' W 122°44'0 0.0
2014-Apr-08 16:32N 45°34' W 122°44'0 0.3
2014-Apr-08 15:33N 45°34' W 122°44'0 0.3
2014-Apr-08 14:33N 45°34' W 122°44'0 0.0
2014-Apr-08 13:33N 45°34' W 122°44'0 0.0
2014-Apr-08 12:33N 45°34' W 122°44'  

Dump ship's entire track history

sailing weather and tide predictions

Portland — WDG2201 — position and weather